createdAt,value
2022-11-29T00:00:18.132Z,85.954167
2022-11-29T00:05:18.179Z,86.016667
2022-11-29T00:10:18.536Z,86.033333
2022-11-29T00:15:18.196Z,86.033333
2022-11-29T00:20:18.040Z,86.708000
2022-11-29T00:25:18.064Z,87.008333
2022-11-29T00:30:18.103Z,87.229167
2022-11-29T00:35:18.087Z,87.550000
2022-11-29T00:40:18.009Z,87.883333
2022-11-29T00:45:18.150Z,88.400000
2022-11-29T00:50:18.408Z,88.408333
2022-11-29T00:55:18.177Z,88.654167
2022-11-29T01:00:18.261Z,88.791667
2022-11-29T01:05:18.395Z,88.700000
2022-11-29T01:10:18.080Z,88.700000
2022-11-29T01:15:18.176Z,88.666667
2022-11-29T01:20:18.238Z,88.600000
2022-11-29T01:25:18.209Z,88.616667
2022-11-29T01:30:18.041Z,88.587500
2022-11-29T01:35:18.093Z,88.483333
2022-11-29T01:40:18.047Z,88.745833
2022-11-29T01:45:18.078Z,89.045833
2022-11-29T01:50:18.063Z,89.216667
2022-11-29T01:55:18.132Z,89.300000
2022-11-29T02:00:18.071Z,89.275000
2022-11-29T02:05:18.057Z,89.183333
2022-11-29T02:10:18.539Z,89.191667
2022-11-29T02:15:18.347Z,89.245833
2022-11-29T02:20:18.308Z,89.254167
2022-11-29T02:25:18.096Z,89.450000
2022-11-29T02:30:18.160Z,89.312500
2022-11-29T02:35:18.163Z,89.400000
2022-11-29T02:40:18.071Z,89.545833
2022-11-29T02:45:18.052Z,89.808333
2022-11-29T02:50:18.209Z,89.854167
2022-11-29T02:55:18.125Z,90.025000
2022-11-29T03:00:18.639Z,90.050000
2022-11-29T03:05:18.050Z,90.200000
2022-11-29T03:10:18.365Z,90.358333
2022-11-29T03:15:17.981Z,90.495833
2022-11-29T03:20:18.352Z,90.600000
2022-11-29T03:25:18.506Z,90.720833
2022-11-29T03:30:17.992Z,90.783333
2022-11-29T03:35:18.674Z,90.800000
2022-11-29T03:40:18.302Z,90.875000
2022-11-29T03:45:17.956Z,91.000000
2022-11-29T03:50:18.194Z,90.983333
2022-11-29T03:55:18.114Z,91.025000
2022-11-29T04:00:18.258Z,91.100000
2022-11-29T04:05:18.015Z,91.116667
2022-11-29T04:10:18.260Z,91.233333
2022-11-29T04:15:18.330Z,91.370833
2022-11-29T04:20:18.311Z,91.458333
2022-11-29T04:25:18.068Z,91.466667
2022-11-29T04:30:18.325Z,91.500000
2022-11-29T04:35:18.269Z,91.500000
2022-11-29T04:40:18.028Z,91.600000
2022-11-29T04:45:17.995Z,91.650000
2022-11-29T04:50:18.128Z,91.733333
2022-11-29T04:55:26.219Z,91.650000
2022-11-29T05:00:18.014Z,91.841667
2022-11-29T05:05:18.383Z,91.970833
2022-11-29T05:10:18.044Z,92.070833
2022-11-29T05:15:17.975Z,92.150000
2022-11-29T05:20:18.043Z,92.050000
2022-11-29T05:25:18.082Z,92.000000
2022-11-29T05:30:18.064Z,92.000000
2022-11-29T05:35:18.058Z,91.984000
2022-11-29T05:40:18.050Z,92.183333
2022-11-29T05:45:17.995Z,92.200000
2022-11-29T05:50:18.035Z,92.200000
2022-11-29T05:55:18.160Z,92.200000
2022-11-29T06:00:18.043Z,92.216667
2022-11-29T06:05:17.956Z,92.200000
2022-11-29T06:10:18.051Z,92.183333
2022-11-29T06:15:18.092Z,92.179167
2022-11-29T06:20:18.055Z,92.200000
2022-11-29T06:25:18.231Z,92.200000
2022-11-29T06:30:18.257Z,92.200000
2022-11-29T06:35:18.158Z,92.200000
2022-11-29T06:40:18.119Z,92.279167
2022-11-29T06:45:18.240Z,92.208333
2022-11-29T06:50:17.946Z,92.200000
2022-11-29T06:55:17.986Z,92.200000
2022-11-29T07:00:18.225Z,92.216667
2022-11-29T07:05:17.974Z,92.245833
2022-11-29T07:10:18.006Z,92.283333
2022-11-29T07:15:18.027Z,92.300000
2022-11-29T07:20:18.450Z,92.279167
2022-11-29T07:25:17.962Z,92.300000
2022-11-29T07:30:18.338Z,92.252000
2022-11-29T07:35:17.906Z,92.200000
2022-11-29T07:40:18.033Z,92.200000
2022-11-29T07:45:17.973Z,92.200000
2022-11-29T07:50:18.077Z,92.350000
2022-11-29T07:55:19.088Z,92.395833
2022-11-29T08:00:17.916Z,92.283333
2022-11-29T08:05:17.988Z,92.245833
2022-11-29T08:10:18.007Z,92.333333
2022-11-29T08:15:17.980Z,92.266667
2022-11-29T08:20:17.858Z,92.300000
2022-11-29T08:25:18.131Z,92.283333
2022-11-29T08:30:17.947Z,92.300000
2022-11-29T08:35:17.982Z,92.208333
2022-11-29T08:40:17.876Z,92.016667
2022-11-29T08:45:17.943Z,92.100000
2022-11-29T08:50:17.918Z,92.212500
2022-11-29T08:55:18.492Z,92.104167
2022-11-29T09:00:18.282Z,91.916667
2022-11-29T09:05:18.390Z,91.883333
2022-11-29T09:10:17.865Z,91.675000
2022-11-29T09:15:17.917Z,91.600000
2022-11-29T09:20:18.032Z,91.408333
2022-11-29T09:25:17.904Z,91.204167
2022-11-29T09:30:23.322Z,91.041667
2022-11-29T09:35:17.879Z,90.683333
2022-11-29T09:40:17.834Z,90.350000
2022-11-29T09:45:17.998Z,90.258333
2022-11-29T09:50:18.156Z,90.000000
2022-11-29T09:55:17.926Z,89.687500
2022-11-29T10:00:17.863Z,89.545833
2022-11-29T10:05:17.966Z,89.487500
2022-11-29T10:10:18.077Z,89.241667
2022-11-29T10:15:17.875Z,89.100000
2022-11-29T10:20:18.201Z,88.712500
2022-11-29T10:25:18.164Z,88.733333
2022-11-29T10:30:18.193Z,88.050000
2022-11-29T10:35:17.901Z,87.670833
2022-11-29T10:40:17.963Z,87.075000
2022-11-29T10:45:17.889Z,86.837500
2022-11-29T10:50:18.053Z,86.479167
2022-11-29T10:55:17.851Z,86.054167
2022-11-29T11:00:17.940Z,86.100000
2022-11-29T11:05:18.021Z,85.975000
2022-11-29T11:10:18.207Z,85.633333
2022-11-29T11:15:17.879Z,85.091667
2022-11-29T11:20:17.980Z,84.679167
2022-11-29T11:25:18.108Z,84.529167
2022-11-29T11:30:18.143Z,84.220833
2022-11-29T11:35:18.646Z,84.408000
2022-11-29T11:40:18.172Z,84.795833
2022-11-29T11:45:18.066Z,85.183333
2022-11-29T11:50:17.976Z,85.266667
2022-11-29T11:55:18.108Z,85.304167
2022-11-29T12:00:34.491Z,84.979167
2022-11-29T12:05:17.887Z,85.416667
2022-11-29T12:10:17.859Z,84.733333
2022-11-29T12:15:17.856Z,84.558333
2022-11-29T12:20:17.961Z,84.716667
2022-11-29T12:25:18.338Z,84.208333
2022-11-29T12:30:17.974Z,84.062500
2022-11-29T12:35:19.120Z,84.508333
2022-11-29T12:40:17.985Z,84.233333
2022-11-29T12:45:17.833Z,84.929167
2022-11-29T12:50:17.925Z,84.958333
2022-11-29T12:55:17.872Z,83.958333
2022-11-29T13:00:17.866Z,83.216667
2022-11-29T13:05:18.223Z,82.037500
2022-11-29T13:10:18.707Z,81.787500
2022-11-29T13:15:17.952Z,81.750000
2022-11-29T13:20:17.850Z,81.000000
2022-11-29T13:25:17.879Z,81.070833
2022-11-29T13:30:17.908Z,80.995833
2022-11-29T13:35:17.808Z,81.025000
2022-11-29T13:40:17.944Z,80.750000
2022-11-29T13:45:18.223Z,81.208333
2022-11-29T13:50:18.125Z,81.416667
2022-11-29T13:55:18.263Z,81.275000
2022-11-29T14:00:18.078Z,81.370833
2022-11-29T14:05:17.892Z,81.075000
2022-11-29T14:10:26.410Z,80.441667
2022-11-29T14:15:17.806Z,80.162500
2022-11-29T14:20:18.206Z,80.087500
2022-11-29T14:25:49.253Z,80.250000
2022-11-29T14:30:17.966Z,80.645833
2022-11-29T14:35:17.763Z,81.200000
2022-11-29T14:40:18.300Z,82.300000
2022-11-29T14:45:18.009Z,83.004167
2022-11-29T14:50:17.822Z,83.995833
2022-11-29T14:55:17.834Z,84.579167
2022-11-29T15:00:17.986Z,84.883333
2022-11-29T15:05:17.840Z,85.250000
2022-11-29T15:10:18.217Z,85.720833
2022-11-29T15:15:17.911Z,85.966667
2022-11-29T15:20:17.777Z,85.875000
2022-11-29T15:25:17.792Z,85.845833
2022-11-29T15:30:17.927Z,85.783333
2022-11-29T15:35:17.799Z,85.483333
2022-11-29T15:40:18.050Z,85.212500
2022-11-29T15:45:17.898Z,85.187500
2022-11-29T15:50:17.873Z,84.766667
2022-11-29T15:55:18.011Z,84.750000
2022-11-29T16:00:17.895Z,85.466667
2022-11-29T16:05:18.184Z,85.766667
2022-11-29T16:10:18.203Z,86.133333
2022-11-29T16:15:18.224Z,86.200000
2022-11-29T16:20:17.855Z,86.308333
2022-11-29T16:25:17.822Z,86.875000
2022-11-29T16:30:17.836Z,86.791667
2022-11-29T16:35:17.829Z,86.004167
2022-11-29T16:40:17.819Z,85.300000
2022-11-29T16:45:17.808Z,85.795833
2022-11-29T16:50:18.131Z,86.195833
2022-11-29T16:55:17.849Z,86.466667
2022-11-29T17:00:18.001Z,86.491667
2022-11-29T17:05:17.882Z,86.341667
2022-11-29T17:10:18.054Z,85.862500
2022-11-29T17:15:17.847Z,85.483333
2022-11-29T17:20:17.772Z,84.720833
2022-11-29T17:25:17.823Z,84.745833
2022-11-29T17:30:18.294Z,84.666667
2022-11-29T17:35:17.979Z,84.491667
2022-11-29T17:40:17.900Z,84.333333
2022-11-29T17:45:17.874Z,84.470833
2022-11-29T17:50:17.942Z,84.750000
2022-11-29T17:55:20.675Z,84.908333
2022-11-29T18:00:18.055Z,84.562500
2022-11-29T18:05:18.052Z,84.262500
2022-11-29T18:10:17.744Z,84.466667
2022-11-29T18:15:17.750Z,84.254167
2022-11-29T18:20:18.161Z,83.288000
2022-11-29T18:25:38.106Z,82.650000
2022-11-29T18:30:17.914Z,82.141667
2022-11-29T18:35:17.973Z,81.837500
2022-11-29T18:40:17.863Z,81.750000
2022-11-29T18:45:18.073Z,81.720833
2022-11-29T18:50:18.213Z,81.712500
2022-11-29T18:55:18.617Z,81.820833
2022-11-29T19:00:19.054Z,82.000000
2022-11-29T19:05:17.695Z,82.387500
2022-11-29T19:10:17.778Z,82.554167
2022-11-29T19:15:17.785Z,82.408333
2022-11-29T19:20:17.910Z,82.295833
2022-11-29T19:25:17.783Z,82.450000
2022-11-29T19:30:17.814Z,82.366667
2022-11-29T19:35:17.757Z,82.604167
2022-11-29T19:40:17.773Z,82.512500
2022-11-29T19:45:18.400Z,82.804167
2022-11-29T19:50:17.726Z,82.791667
2022-11-29T19:55:17.785Z,82.979167
2022-11-29T20:00:17.851Z,83.304167
2022-11-29T20:05:17.706Z,83.383333
2022-11-29T20:10:17.738Z,84.158333
2022-11-29T20:15:17.765Z,84.054167
2022-11-29T20:20:18.037Z,84.920833
2022-11-29T20:25:17.957Z,86.133333
2022-11-29T20:30:17.920Z,86.558333
2022-11-29T20:35:18.291Z,86.458333
2022-11-29T20:40:18.377Z,86.200000
2022-11-29T20:45:17.786Z,85.820833
2022-11-29T20:50:21.750Z,85.729167
2022-11-29T20:55:17.658Z,85.620833
2022-11-29T21:00:17.850Z,85.500000
2022-11-29T21:05:17.704Z,85.754167
2022-11-29T21:10:17.862Z,86.125000
2022-11-29T21:15:17.824Z,86.350000
2022-11-29T21:20:17.716Z,86.537500
2022-11-29T21:25:17.617Z,86.550000
2022-11-29T21:30:17.717Z,86.433333
2022-11-29T21:35:17.605Z,86.212500
2022-11-29T21:40:17.603Z,86.325000
2022-11-29T21:45:17.907Z,85.641667
2022-11-29T21:50:17.917Z,84.516667
2022-11-29T21:55:17.781Z,83.479167
2022-11-29T22:00:17.776Z,82.920833
2022-11-29T22:05:17.816Z,82.883333
2022-11-29T22:10:18.151Z,82.804167
2022-11-29T22:15:22.921Z,82.675000
2022-11-29T22:20:18.034Z,82.500000
2022-11-29T22:25:17.780Z,82.316667
2022-11-29T22:30:17.783Z,82.125000
2022-11-29T22:35:17.820Z,82.050000
2022-11-29T22:40:17.930Z,82.100000
2022-11-29T22:45:17.813Z,81.895833
2022-11-29T22:50:17.954Z,81.883333
2022-11-29T22:55:17.869Z,82.450000
2022-11-29T23:00:17.863Z,82.929167
2022-11-29T23:05:18.080Z,83.133333
2022-11-29T23:10:17.637Z,83.412500
2022-11-29T23:15:17.592Z,84.291667
2022-11-29T23:20:17.786Z,85.016667
2022-11-29T23:25:17.694Z,85.187500
2022-11-29T23:30:17.651Z,85.183333
2022-11-29T23:35:17.571Z,85.104167
2022-11-29T23:40:17.597Z,85.428000
2022-11-29T23:45:17.666Z,86.045833
2022-11-29T23:50:17.632Z,86.748000
2022-11-29T23:55:17.881Z,87.287500
